Aeroporto :
LOGIN :

Iscrizione | Disclaimer

   EN    FR    IT 

 










Sommario :    VFR   VFR Marginale   IFR   IFR Intensivo   IFR Molto Intensivo
Visibilità : 
Base nubi : 
>= 8 km
>= 3000ft
5 / 8 km
1000 / 3000 ft
1500m / 5 km
500 / 1000 ft
800 / 1500m
200 / 500 ft
< 800m
< 200 ft
Simboli :   Temporali  Nebbia  Neve Forte  Precipitazioni Forti  Vento > 20 kt
SIGMETs :   Varie  Temporali  Ghiacco  Turbolenza  Onda orograficha  Ceneri Vulcaniche






- Altitudine del aeroporto : 56 ft
- Codice IATA : BZR


LFMU - Beziers / Vias

ULTIMO METAR :
  • 120630Z AUTO 32008KT 9999 FEW046 06/02 Q1011 NOSIG

METARs OBSOLETI :
  • 120600Z AUTO 32009KT 9999 BKN046 06/02 Q1011 NOSIG
  • 120530Z AUTO 32005KT CAVOK 05/01 Q1011 NOSIG
  • 120500Z AUTO 33008KT CAVOK 06/01 Q1012 NOSIG
  • 120430Z AUTO 32014KT CAVOK 08/01 Q1011 NOSIG
  • 120400Z AUTO 31017KT CAVOK 08/01 Q1012 NOSIG
  • 120330Z AUTO 31017KT CAVOK 08/01 Q1012 NOSIG

TAF TAF LFMU
Valido dal 12 a 03 ore il 13 a 03 ore UTC


120200Z 1203/1303 32012KT 9999 FEW050
TEMPO 1211/1218 32018G28KT
BECMG 1218/1220 30008KT
ATIS : +33 4 67 90 88 88



MetMap, La meteo Aeronautica in un colpo d'occhio ! - Copyright ORBIFLY Dicembre 2007 - Disclaimer

ORBIFLY MET'MAP TEAM :

Programmazione e sviluppo : Alexandra Zaïnal
Concezione e sviluppo : Baudouin d'Aumeries
Co-Programmazione e sviluppo : Marc-Olivier Méhu
Supporto tecnico e logistico : Manuel Goepfert
Aiuto per la traduzione : Arnaldo La Scala

Contatto : metmap@orbifly.com




FONTI E CREDITI :

   NOAA